Nyala, Nevada Weather observations

Data are for observation ending at time listed.
 Day   Time    Ave.   Ave.  Ave.  Vector   Max.   Stn.    Total    Solar   Ave.  
  of    of     Air    Rel.  Wind   Wind    Wind   Baro.  Precip.   Rad.    Soil  
Year   Day     Temp.  Hum.  Speed  Dir.    Gust   Pres.                    Temp. 
2015   (PST)    F      %     mph   deg.    mph     mb.     in.     W/m2     F   
------------------------------------------------------------------------------
 149    5:00   55.6    56    5.6   213     10.5    854     0.00       4    68.0
 149    6:00   57.7    54    4.6   218      8.3    854     0.00      54    67.2
 149    7:00   61.5    47    5.2   243      8.6    855     0.00     140    66.7
 149    8:00   65.5    43    6.2   233     10.6    855     0.00     231    66.9
 149    9:00   71.1    34    3.1   224      8.1    855     0.00     308    67.6
 149   10:00   75.9    27    2.2   195      6.7    854     0.00     370    68.4
 149   11:00   80.2    23    2.1   282      9.3    854     0.00     410    69.5
 149   12:00   82.7    21    3.1   256     11.2    854     0.00     410    71.2
 149   13:00   84.3    20    3.7   262     10.2    853     0.00     433    73.1
 149   14:00   85.8    16    4.0   199     14.2    852     0.00     347    76.7
 149   15:00   86.7    13    6.7   239     17.6    851     0.00     241    80.2
 149   16:00   85.0    15    6.6   230     20.0    851     0.00     164    82.0
 149   17:00   85.3    13    3.1    72      9.3    851     0.00      70    82.2
 149   18:00   83.2    14    5.8   120     14.5    851     0.00      21    81.8
 149   19:00   82.0    14    8.9   115     17.8    851     0.00       8    80.9
 149   20:00   81.2    14    9.6   125     16.4    851     0.00       0    79.8
 149   21:00   79.9    15    8.1   133     14.0    851     0.00       0    78.9
 149   22:00   78.4    15    9.2   133     18.5    852     0.00       0    78.0
 149   23:00   77.6    15    9.6   145     17.5    852     0.00       0    77.2
 150    0:00   70.4    24    4.3   183     12.1    852     0.00       0    76.4
 150    1:00   67.3    24    2.7    16      7.1    852     0.00       0    75.6
 150    2:00   61.6    31    1.6    51      4.2    852     0.00       0    74.6
 150    3:00   60.5    31    1.8     2      6.9    852     0.00       0    73.5
 150    4:00   60.0    33    2.3    23      5.4    852     0.00       0    72.4

Return to Nyala, Nevada graphs page.


Western Regional Climate Center,wrcc@dri.edu